createdAt,value
2022-09-22T00:01:40.678Z,99409.41
2022-09-22T00:04:13.107Z,99415.72
2022-09-22T00:06:44.702Z,99393.63
2022-09-22T00:09:14.698Z,99375.25
2022-09-22T00:11:46.309Z,99415.41
2022-09-22T00:14:27.338Z,99410.81
2022-09-22T00:17:06.778Z,99415.50
2022-09-22T00:19:37.959Z,99400.25
2022-09-22T00:22:12.969Z,99416.63
2022-09-22T00:24:40.730Z,99398.72
2022-09-22T00:27:08.596Z,99410.91
2022-09-22T00:29:36.567Z,99408.16
2022-09-22T00:32:07.409Z,99395.97
2022-09-22T00:34:34.948Z,99384.84
2022-09-22T00:37:02.515Z,99403.16
2022-09-22T00:39:30.974Z,99374.41
2022-09-22T00:41:58.250Z,99400.22
2022-09-22T00:44:44.943Z,99394.53
2022-09-22T00:47:19.013Z,99396.97
2022-09-22T00:49:54.030Z,99392.41
2022-09-22T00:52:31.860Z,99390.78
2022-09-22T00:55:02.780Z,99391.78
2022-09-22T00:57:33.761Z,99395.97
2022-09-22T01:00:05.240Z,99384.88
2022-09-22T01:02:33.356Z,99385.69
2022-09-22T01:05:05.966Z,99397.59
2022-09-22T01:07:33.896Z,99396.47
2022-09-22T01:10:01.757Z,99397.16
2022-09-22T01:12:32.514Z,99394.31
2022-09-22T01:15:40.883Z,99391.34
2022-09-22T01:18:22.090Z,99397.88
2022-09-22T01:21:14.331Z,99395.13
2022-09-22T01:24:34.216Z,99395.41
2022-09-22T01:27:32.441Z,99399.19
2022-09-22T01:30:21.365Z,99400.22
2022-09-22T01:33:22.640Z,99394.91
2022-09-22T01:36:09.390Z,99390.63
2022-09-22T01:38:49.557Z,99401.31
2022-09-22T01:41:24.248Z,99402.63
2022-09-22T01:43:58.918Z,99402.31
2022-09-22T01:46:37.683Z,99396.72
2022-09-22T01:49:11.154Z,99399.28
2022-09-22T01:51:56.554Z,99412.59
2022-09-22T01:54:42.046Z,99402.03
2022-09-22T01:57:27.251Z,99390.03
2022-09-22T02:00:01.692Z,99398.28
2022-09-22T02:02:42.975Z,99398.72
2022-09-22T02:05:27.710Z,99411.03
2022-09-22T02:07:56.147Z,99408.31
2022-09-22T02:10:31.125Z,99394.59
2022-09-22T02:12:58.747Z,99400.38
2022-09-22T02:15:44.770Z,99397.13
2022-09-22T02:18:25.680Z,99407.81
2022-09-22T02:20:53.735Z,99401.19
2022-09-22T02:23:20.961Z,99407.19
2022-09-22T02:25:49.873Z,99410.16
2022-09-22T02:28:20.555Z,99402.53
2022-09-22T02:31:10.933Z,99405.97
2022-09-22T02:33:40.685Z,99415.53
2022-09-22T02:36:37.402Z,99415.75
2022-09-22T02:39:13.802Z,99421.25
2022-09-22T02:42:02.238Z,99408.81
2022-09-22T02:45:26.084Z,99420.44
2022-09-22T02:48:10.390Z,99410.56
2022-09-22T02:50:38.502Z,99399.06
2022-09-22T02:53:12.969Z,99405.47
2022-09-22T02:55:40.778Z,99406.50
2022-09-22T02:58:08.269Z,99418.28
2022-09-22T03:00:37.245Z,99412.69
2022-09-22T03:03:11.828Z,99421.44
2022-09-22T03:05:39.486Z,99420.31
2022-09-22T03:08:08.208Z,99421.56
2022-09-22T03:10:35.773Z,99415.03
2022-09-22T03:13:15.993Z,99419.09
2022-09-22T03:15:45.828Z,99427.16
2022-09-22T03:18:13.907Z,99425.53
2022-09-22T03:20:41.504Z,99434.06
2022-09-22T03:23:09.513Z,99423.09
2022-09-22T03:25:36.789Z,99414.66
2022-09-22T03:28:04.255Z,99429.59
2022-09-22T03:30:31.644Z,99443.53
2022-09-22T03:33:03.320Z,99438.78
2022-09-22T03:35:30.897Z,99427.38
2022-09-22T03:37:58.121Z,99448.75
2022-09-22T03:40:27.041Z,99443.66
2022-09-22T03:42:54.836Z,99437.66
2022-09-22T03:45:21.989Z,99440.09
2022-09-22T03:47:49.415Z,99445.19
2022-09-22T03:50:16.727Z,99426.06
2022-09-22T03:52:45.473Z,99445.19
2022-09-22T03:55:15.982Z,99428.19
2022-09-22T03:57:44.084Z,99437.03
2022-09-22T04:00:12.133Z,99428.91
2022-09-22T04:02:39.351Z,99434.09
2022-09-22T04:05:07.107Z,99436.34
2022-09-22T04:07:34.638Z,99442.50
2022-09-22T04:10:02.728Z,99431.00
2022-09-22T04:12:30.861Z,99438.97
2022-09-22T04:14:58.641Z,99443.63
2022-09-22T04:17:26.257Z,99441.91
2022-09-22T04:20:01.026Z,99444.03
2022-09-22T04:22:29.195Z,99445.34
2022-09-22T04:24:57.630Z,99433.97
2022-09-22T04:27:25.456Z,99448.09
2022-09-22T04:29:52.825Z,99422.59
2022-09-22T04:32:20.356Z,99446.06
2022-09-22T04:34:48.960Z,99439.94
2022-09-22T04:37:17.603Z,99451.13
2022-09-22T04:39:45.166Z,99460.63
2022-09-22T04:42:13.879Z,99459.13
2022-09-22T04:44:43.828Z,99445.88
2022-09-22T04:47:11.020Z,99440.66
2022-09-22T04:49:38.410Z,99447.28
2022-09-22T04:52:09.748Z,99446.34
2022-09-22T04:54:36.775Z,99448.75
2022-09-22T04:57:04.257Z,99442.56
2022-09-22T04:59:31.503Z,99457.81
2022-09-22T05:02:00.592Z,99461.09
2022-09-22T05:04:29.347Z,99462.88
2022-09-22T05:06:58.107Z,99461.69
2022-09-22T05:09:26.785Z,99447.50
2022-09-22T05:11:57.308Z,99448.63
2022-09-22T05:14:26.518Z,99445.25
2022-09-22T05:16:53.821Z,99456.13
2022-09-22T05:19:21.535Z,99447.75
2022-09-22T05:21:48.715Z,99456.56
2022-09-22T05:24:16.116Z,99460.13
2022-09-22T05:26:43.186Z,99463.38
2022-09-22T05:29:11.173Z,99458.38
2022-09-22T05:31:41.361Z,99453.69
2022-09-22T05:34:09.474Z,99459.41
2022-09-22T05:36:36.771Z,99456.66
2022-09-22T05:39:03.982Z,99458.66
2022-09-22T05:41:31.171Z,99459.75
2022-09-22T05:43:58.637Z,99454.22
2022-09-22T05:46:26.000Z,99458.81
2022-09-22T05:48:53.626Z,99465.78
2022-09-22T05:51:26.280Z,99438.00
2022-09-22T05:53:57.892Z,99460.34
2022-09-22T05:56:28.660Z,99465.56
2022-09-22T05:58:56.082Z,99461.91
2022-09-22T06:01:23.648Z,99459.75
2022-09-22T06:03:50.836Z,99467.44
2022-09-22T06:06:18.167Z,99478.94
2022-09-22T06:08:48.823Z,99463.53
2022-09-22T06:11:16.323Z,99468.22
2022-09-22T06:13:44.455Z,99480.72
2022-09-22T06:16:11.808Z,99477.97
2022-09-22T06:18:39.651Z,99468.56
2022-09-22T06:21:08.230Z,99472.66
2022-09-22T06:23:38.261Z,99470.91
2022-09-22T06:26:07.893Z,99478.53
2022-09-22T06:28:35.549Z,99475.47
2022-09-22T06:31:03.164Z,99495.59
2022-09-22T06:33:30.775Z,99486.84
2022-09-22T06:36:04.605Z,99486.50
2022-09-22T06:38:32.097Z,99487.16
2022-09-22T06:41:04.458Z,99489.63
2022-09-22T06:43:35.686Z,99494.31
2022-09-22T06:46:03.060Z,99490.56
2022-09-22T06:48:32.023Z,99496.91
2022-09-22T06:50:59.127Z,99499.97
2022-09-22T06:53:27.611Z,99502.91
2022-09-22T06:56:00.461Z,99500.13
2022-09-22T06:58:29.178Z,99489.41
2022-09-22T07:01:08.911Z,99497.88
2022-09-22T07:03:41.213Z,99493.00
2022-09-22T07:06:10.179Z,99496.06
2022-09-22T07:08:39.564Z,99505.00
2022-09-22T07:11:09.235Z,99490.22
2022-09-22T07:13:40.124Z,99498.84
2022-09-22T07:16:11.588Z,99503.06
2022-09-22T07:18:41.881Z,99497.06
2022-09-22T07:21:38.227Z,99497.88
2022-09-22T07:24:08.286Z,99495.09
2022-09-22T07:26:40.050Z,99492.34
2022-09-22T07:29:32.262Z,99486.19
2022-09-22T07:31:59.855Z,99480.16
2022-09-22T07:34:27.095Z,99494.13
2022-09-22T07:36:54.847Z,99488.78
2022-09-22T07:39:25.344Z,99485.50
2022-09-22T07:41:52.627Z,99499.88
2022-09-22T07:44:42.309Z,99483.25
2022-09-22T07:47:11.991Z,99450.81
2022-09-22T07:49:39.483Z,99502.66
2022-09-22T07:52:07.025Z,99512.09
2022-09-22T07:54:37.141Z,99498.34
2022-09-22T07:57:08.789Z,99505.28
2022-09-22T07:59:36.673Z,99509.38
2022-09-22T08:02:03.890Z,99510.00
2022-09-22T08:04:32.022Z,99501.09
2022-09-22T08:06:59.239Z,99496.50
2022-09-22T08:09:28.315Z,99509.47
2022-09-22T08:11:56.160Z,99505.06
2022-09-22T08:14:24.341Z,99514.19
2022-09-22T08:16:53.605Z,99510.56
2022-09-22T08:19:23.695Z,99502.44
2022-09-22T08:21:53.928Z,99505.44
2022-09-22T08:24:22.651Z,99503.81
2022-09-22T08:26:52.809Z,99497.41
2022-09-22T08:29:21.291Z,99486.53
2022-09-22T08:31:49.554Z,99491.69
2022-09-22T08:34:18.343Z,99489.66
2022-09-22T08:36:49.125Z,99487.50
2022-09-22T08:39:17.868Z,99493.81
2022-09-22T08:41:48.494Z,99489.34
2022-09-22T08:44:26.680Z,99479.09
2022-09-22T08:46:57.098Z,99452.91
2022-09-22T08:50:01.349Z,99480.16
2022-09-22T08:52:50.949Z,99478.19
2022-09-22T08:55:26.772Z,99467.91
2022-09-22T08:58:15.807Z,99470.72
2022-09-22T09:00:54.627Z,99462.75
2022-09-22T09:03:41.694Z,99466.56
2022-09-22T09:06:28.933Z,99468.19
2022-09-22T09:09:33.416Z,99454.78
2022-09-22T09:12:07.059Z,99457.53
2022-09-22T09:14:52.856Z,99459.56
2022-09-22T09:17:26.142Z,99451.84
2022-09-22T09:20:12.293Z,99457.59
2022-09-22T09:22:49.176Z,99461.69
2022-09-22T09:25:27.756Z,99457.44
2022-09-22T09:28:02.103Z,99448.56
2022-09-22T09:30:36.974Z,99458.38
2022-09-22T09:33:11.519Z,99448.31
2022-09-22T09:35:50.419Z,99450.97
2022-09-22T09:38:30.275Z,99455.69
2022-09-22T09:41:22.802Z,99457.69
2022-09-22T09:43:54.519Z,99455.28
2022-09-22T09:47:08.221Z,99456.31
2022-09-22T09:49:36.060Z,99451.41
2022-09-22T09:52:10.620Z,99467.03
2022-09-22T09:54:40.322Z,99441.72
2022-09-22T10:00:53.158Z,99442.44
2022-09-22T10:03:32.715Z,99442.28
2022-09-22T10:06:04.834Z,99449.81
2022-09-22T10:08:37.360Z,99444.19
2022-09-22T10:11:08.009Z,99442.38
2022-09-22T10:13:40.308Z,99445.56
2022-09-22T10:16:23.344Z,99436.38
2022-09-22T10:18:59.392Z,99435.81
2022-09-22T10:21:28.849Z,99432.03
2022-09-22T10:24:06.693Z,99444.47
2022-09-22T10:26:34.689Z,99428.94
2022-09-22T10:29:39.247Z,99426.78
2022-09-22T10:32:16.951Z,99425.16
2022-09-22T10:37:15.612Z,99409.59
2022-09-22T10:39:54.554Z,99413.34
2022-09-22T10:42:33.514Z,99408.44
2022-09-22T10:45:12.474Z,99414.75
2022-09-22T10:47:58.265Z,99406.75
2022-09-22T10:50:37.809Z,99407.03
2022-09-22T10:53:48.248Z,99407.31
2022-09-22T10:56:37.661Z,99400.50
2022-09-22T10:59:28.786Z,99405.38
2022-09-22T11:02:18.444Z,99396.22
2022-09-22T11:05:54.784Z,99384.47
2022-09-22T11:08:41.263Z,99388.25
2022-09-22T11:11:30.137Z,99401.09
2022-09-22T11:14:20.758Z,99386.09
2022-09-22T11:17:26.343Z,99389.66
2022-09-22T11:20:23.191Z,99375.22
2022-09-22T11:22:57.599Z,99386.50
2022-09-22T11:25:55.546Z,99371.91
2022-09-22T11:28:38.215Z,99370.75
2022-09-22T11:31:41.593Z,99376.03
2022-09-22T11:34:38.195Z,99373.78
2022-09-22T11:37:25.752Z,99376.94
2022-09-22T11:39:52.878Z,99371.19
2022-09-22T11:42:47.058Z,99371.28
2022-09-22T11:45:43.070Z,99339.81
2022-09-22T11:48:28.376Z,99355.50
2022-09-22T11:51:04.760Z,99353.41
2022-09-22T11:53:51.103Z,99355.22
2022-09-22T11:56:31.973Z,99356.91
2022-09-22T11:59:04.380Z,99357.94
2022-09-22T12:01:38.331Z,99352.53
2022-09-22T12:04:14.487Z,99360.59
2022-09-22T12:06:50.431Z,99358.84
2022-09-22T12:09:39.825Z,99350.47
2022-09-22T12:12:14.300Z,99348.94
2022-09-22T12:14:42.524Z,99349.09
2022-09-22T12:17:23.630Z,99348.56
2022-09-22T12:20:27.149Z,99267.44
2022-09-22T12:23:17.815Z,99337.94
2022-09-22T12:25:54.528Z,99331.97
2022-09-22T12:28:28.476Z,99338.06
2022-09-22T12:31:17.482Z,99330.72
2022-09-22T12:33:56.095Z,99306.91
2022-09-22T12:36:36.335Z,99327.31
2022-09-22T12:39:17.480Z,99338.81
2022-09-22T12:41:50.659Z,99339.81
2022-09-22T12:44:36.717Z,99338.41
2022-09-22T12:47:14.587Z,99332.66
2022-09-22T12:49:55.957Z,99340.53
2022-09-22T12:52:42.102Z,99351.09
2022-09-22T12:55:38.232Z,99345.53
2022-09-22T12:58:28.826Z,99346.56
2022-09-22T13:01:17.073Z,99351.50
2022-09-22T13:04:12.271Z,99351.13
2022-09-22T13:06:39.450Z,99356.66
2022-09-22T13:09:06.657Z,99335.44
2022-09-22T13:12:21.830Z,99347.81
2022-09-22T13:15:16.280Z,99330.56
2022-09-22T13:17:47.778Z,99330.28
2022-09-22T13:20:18.114Z,99335.41
2022-09-22T13:22:45.657Z,99333.06
2022-09-22T13:25:21.169Z,99327.06
2022-09-22T13:27:51.274Z,99330.75
2022-09-22T13:30:18.584Z,99326.06
2022-09-22T13:32:51.393Z,99271.41
2022-09-22T13:35:27.701Z,99319.78
2022-09-22T13:37:57.480Z,99328.13
2022-09-22T13:40:31.916Z,99314.94
2022-09-22T13:43:03.261Z,99311.34
2022-09-22T13:45:30.528Z,99325.72
2022-09-22T13:48:08.528Z,99318.69
2022-09-22T13:51:12.122Z,99308.53
2022-09-22T13:53:46.965Z,99301.28
2022-09-22T13:56:29.417Z,99311.81
2022-09-22T13:59:00.256Z,99316.50
2022-09-22T14:01:29.445Z,99317.09
2022-09-22T14:03:57.118Z,99306.31
2022-09-22T14:06:31.806Z,99325.88
2022-09-22T14:09:00.460Z,99316.13
2022-09-22T14:11:31.382Z,99241.19
2022-09-22T14:14:01.075Z,99310.91
2022-09-22T14:16:29.106Z,99308.94
2022-09-22T14:19:08.982Z,99310.09
2022-09-22T14:21:50.227Z,99313.13
2022-09-22T14:24:18.838Z,99316.44
2022-09-22T14:26:51.915Z,99309.19
2022-09-22T14:29:24.599Z,99306.69
2022-09-22T14:32:00.497Z,99312.94
2022-09-22T14:34:31.575Z,99318.81
2022-09-22T14:37:02.064Z,99313.03
2022-09-22T14:39:34.296Z,99312.28
2022-09-22T14:42:12.099Z,99323.44
2022-09-22T14:44:48.387Z,99325.94
2022-09-22T14:47:24.457Z,99310.91
2022-09-22T14:50:20.578Z,99328.78
2022-09-22T14:53:09.537Z,99326.88
2022-09-22T14:55:40.104Z,99311.41
2022-09-22T14:58:16.102Z,99321.31
2022-09-22T15:01:20.014Z,99316.81
2022-09-22T15:04:03.384Z,99316.06
2022-09-22T15:06:40.040Z,99311.06
2022-09-22T15:09:23.248Z,99306.22
2022-09-22T15:12:02.575Z,99315.75
2022-09-22T15:14:43.257Z,99327.47
2022-09-22T15:17:54.427Z,99327.59
2022-09-22T15:20:31.435Z,99325.00
2022-09-22T15:22:58.793Z,99321.50
2022-09-22T15:25:26.206Z,99317.81
2022-09-22T15:27:53.713Z,99330.72
2022-09-22T15:30:22.133Z,99337.72
2022-09-22T15:32:49.710Z,99330.47
2022-09-22T15:35:18.042Z,99333.44
2022-09-22T15:38:27.645Z,99335.66
2022-09-22T15:40:55.451Z,99330.81
2022-09-22T15:43:25.236Z,99329.94
2022-09-22T15:45:56.266Z,99343.28
2022-09-22T15:48:28.805Z,99338.38
2022-09-22T15:50:58.582Z,99343.84
2022-09-22T15:53:26.525Z,99349.22
2022-09-22T15:55:55.274Z,99346.25
2022-09-22T15:58:23.989Z,99337.16
2022-09-22T16:00:53.347Z,99340.56
2022-09-22T16:03:23.974Z,99336.09
2022-09-22T16:05:57.572Z,99341.25
2022-09-22T16:08:52.307Z,99338.31
2022-09-22T16:11:31.096Z,99332.94
2022-09-22T16:14:03.904Z,99340.81
2022-09-22T16:16:33.630Z,99343.34
2022-09-22T16:19:02.346Z,99346.13
2022-09-22T16:21:34.755Z,99338.63
2022-09-22T16:24:08.769Z,99340.38
2022-09-22T16:26:37.899Z,99339.78
2022-09-22T16:29:05.609Z,99336.19
2022-09-22T16:31:33.666Z,99343.13
2022-09-22T16:34:03.398Z,99339.66
2022-09-22T16:36:33.427Z,99344.47
2022-09-22T16:39:03.536Z,99336.94
2022-09-22T16:41:35.576Z,99345.59
2022-09-22T16:44:09.084Z,99341.63
2022-09-22T16:46:38.430Z,99357.09
2022-09-22T16:49:08.288Z,99361.69
2022-09-22T16:51:44.024Z,99364.81
2022-09-22T16:54:13.844Z,99368.38
2022-09-22T16:56:43.564Z,99375.88
2022-09-22T16:59:13.306Z,99378.19
2022-09-22T17:01:40.511Z,99361.97
2022-09-22T17:04:08.778Z,99370.44
2022-09-22T17:06:38.395Z,99364.31
2022-09-22T17:09:06.830Z,99379.53
2022-09-22T17:11:37.076Z,99387.34
2022-09-22T17:14:12.145Z,99372.53
2022-09-22T17:16:49.873Z,99389.72
2022-09-22T17:19:22.230Z,99391.41
2022-09-22T17:21:54.210Z,99382.16
2022-09-22T17:24:22.676Z,99395.06
2022-09-22T17:26:52.511Z,99390.88
2022-09-22T17:29:25.543Z,99405.31
2022-09-22T17:31:58.354Z,99395.91
2022-09-22T17:34:28.569Z,99401.97
2022-09-22T17:36:57.307Z,99414.03
2022-09-22T17:39:26.278Z,99404.34
2022-09-22T17:41:55.317Z,99406.53
2022-09-22T17:44:28.268Z,99410.97
2022-09-22T17:47:13.845Z,99414.94
2022-09-22T17:49:59.610Z,99408.81
2022-09-22T17:52:33.237Z,99409.50
2022-09-22T17:55:07.352Z,99427.19
2022-09-22T17:57:39.994Z,99436.56
2022-09-22T18:00:11.231Z,99421.16
2022-09-22T18:02:39.132Z,99429.09
2022-09-22T18:05:15.298Z,99436.13
2022-09-22T18:07:43.228Z,99427.53
2022-09-22T18:10:14.543Z,99430.28
2022-09-22T18:12:43.666Z,99434.84
2022-09-22T18:15:13.395Z,99437.78
2022-09-22T18:17:45.841Z,99434.84
2022-09-22T18:20:22.027Z,99441.03
2022-09-22T18:22:50.169Z,99436.31
2022-09-22T18:25:39.388Z,99443.31
2022-09-22T18:28:06.864Z,99445.41
2022-09-22T18:30:34.565Z,99440.22
2022-09-22T18:33:04.408Z,99439.09
2022-09-22T18:35:32.998Z,99436.53
2022-09-22T18:38:02.171Z,99436.53
2022-09-22T18:40:35.462Z,99432.31
2022-09-22T18:43:02.656Z,99428.84
2022-09-22T18:45:37.264Z,99436.63
2022-09-22T18:48:07.170Z,99433.88
2022-09-22T18:50:35.790Z,99430.97
2022-09-22T18:53:06.553Z,99432.09
2022-09-22T18:55:34.937Z,99430.47
2022-09-22T18:58:03.333Z,99430.31
2022-09-22T19:00:31.678Z,99422.22
2022-09-22T19:03:00.483Z,99412.50
2022-09-22T19:05:28.470Z,99417.69
2022-09-22T19:08:01.341Z,99424.50
2022-09-22T19:10:30.951Z,99426.94
2022-09-22T19:12:59.471Z,99415.09
2022-09-22T19:15:27.317Z,99428.88
2022-09-22T19:17:56.103Z,99423.50
2022-09-22T19:20:24.341Z,99415.09
2022-09-22T19:22:52.827Z,99430.66
2022-09-22T19:25:22.016Z,99426.28
2022-09-22T19:27:50.783Z,99431.94
2022-09-22T19:30:22.386Z,99426.09
2022-09-22T19:32:51.490Z,99437.91
2022-09-22T19:35:19.679Z,99434.34
2022-09-22T19:37:47.145Z,99437.56
2022-09-22T19:40:18.780Z,99443.56
2022-09-22T19:42:49.916Z,99428.47
2022-09-22T19:45:18.713Z,99432.88
2022-09-22T19:47:47.338Z,99438.47
2022-09-22T19:50:15.020Z,99438.94
2022-09-22T19:52:42.775Z,99439.41
2022-09-22T19:55:11.806Z,99425.59
2022-09-22T19:57:41.846Z,99424.59
2022-09-22T20:00:26.447Z,99446.63
2022-09-22T20:02:58.986Z,99429.38
2022-09-22T20:05:37.826Z,99463.03
2022-09-22T20:08:07.647Z,99461.63
2022-09-22T20:10:35.160Z,99458.66
2022-09-22T20:13:22.683Z,99460.13
2022-09-22T20:15:49.968Z,99462.22
2022-09-22T20:18:17.906Z,99455.19
2022-09-22T20:20:45.213Z,99452.22
2022-09-22T20:23:15.875Z,99461.91
2022-09-22T20:25:43.306Z,99465.25
2022-09-22T20:28:11.400Z,99466.19
2022-09-22T20:30:38.993Z,99454.53
2022-09-22T20:33:06.642Z,99455.66
2022-09-22T20:35:34.125Z,99462.19
2022-09-22T20:38:01.961Z,99461.19
2022-09-22T20:40:53.666Z,99472.50
2022-09-22T20:43:30.181Z,99462.63
2022-09-22T20:49:37.946Z,99464.69
2022-09-22T20:52:16.410Z,99461.28
2022-09-22T20:54:44.954Z,99477.25
2022-09-22T20:57:14.211Z,99472.75
2022-09-22T20:59:42.590Z,99452.06
2022-09-22T21:02:10.291Z,99466.69
2022-09-22T21:04:37.486Z,99466.97
2022-09-22T21:07:04.662Z,99457.84
2022-09-22T21:09:50.140Z,99467.69
2022-09-22T21:12:17.303Z,99475.09
2022-09-22T21:14:45.954Z,99472.47
2022-09-22T21:17:13.799Z,99470.66
2022-09-22T21:19:41.199Z,99475.97
2022-09-22T21:22:08.334Z,99473.34
2022-09-22T21:24:35.542Z,99464.31
2022-09-22T21:27:02.691Z,99459.19
2022-09-22T21:29:29.868Z,99464.56
2022-09-22T21:31:57.940Z,99457.25
2022-09-22T21:34:25.411Z,99471.22
2022-09-22T21:36:52.584Z,99462.75
2022-09-22T21:39:19.722Z,99468.41
2022-09-22T21:41:47.203Z,99463.44
2022-09-22T21:44:14.237Z,99478.03
2022-09-22T21:46:41.927Z,99456.88
2022-09-22T21:49:10.778Z,99472.97
2022-09-22T21:51:44.099Z,99464.50
2022-09-22T21:54:14.693Z,99475.00
2022-09-22T21:56:42.208Z,99479.28
2022-09-22T21:59:11.708Z,99475.50
2022-09-22T22:01:41.012Z,99468.75
2022-09-22T22:04:09.004Z,99455.09
2022-09-22T22:06:42.173Z,99448.59
2022-09-22T22:09:15.634Z,99458.28
2022-09-22T22:11:48.910Z,99457.31
2022-09-22T22:14:19.292Z,99454.19
2022-09-22T22:16:48.612Z,99460.88
2022-09-22T22:19:20.111Z,99454.38
2022-09-22T22:21:50.455Z,99455.09
2022-09-22T22:24:25.895Z,99449.19
2022-09-22T22:27:01.675Z,99459.06
2022-09-22T22:29:34.853Z,99455.28
2022-09-22T22:32:03.253Z,99427.75
2022-09-22T22:34:30.438Z,99446.25
2022-09-22T22:37:01.246Z,99455.31
2022-09-22T22:39:29.938Z,99455.00
2022-09-22T22:41:57.085Z,99443.09
2022-09-22T22:44:24.266Z,99452.28
2022-09-22T22:46:51.450Z,99452.38
2022-09-22T22:49:18.727Z,99453.41
2022-09-22T22:51:46.014Z,99446.38
2022-09-22T22:54:14.611Z,99448.81
2022-09-22T22:56:43.259Z,99455.06
2022-09-22T22:59:12.150Z,99463.16
2022-09-22T23:01:40.571Z,99462.06
2022-09-22T23:04:10.131Z,99449.03
2022-09-22T23:06:40.310Z,99457.47
2022-09-22T23:09:10.195Z,99454.72
2022-09-22T23:11:40.073Z,99470.00
2022-09-22T23:14:11.565Z,99468.25
2022-09-22T23:16:43.345Z,99465.41
2022-09-22T23:19:13.414Z,99470.28
2022-09-22T23:21:40.714Z,99475.47
2022-09-22T23:24:08.347Z,99468.06
2022-09-22T23:26:37.445Z,99469.28
2022-09-22T23:29:06.287Z,99478.84
2022-09-22T23:31:33.729Z,99481.09
2022-09-22T23:34:01.305Z,99469.28
2022-09-22T23:36:29.902Z,99482.91
2022-09-22T23:39:05.036Z,99483.44
2022-09-22T23:41:34.431Z,99487.91
2022-09-22T23:44:03.017Z,99478.97
2022-09-22T23:46:30.645Z,99484.16
2022-09-22T23:49:00.361Z,99465.50
2022-09-22T23:51:28.342Z,99473.97
2022-09-22T23:53:56.534Z,99468.56
2022-09-22T23:56:24.933Z,99473.53
2022-09-22T23:58:52.743Z,99452.56
